Regatta — V7DM3 — position and weather

sailwx.info

Track history (hours):
 
Tides and Currents Weather Stations Pressure Air Temp Water Temp Dewpoint Dewpoint Depression Visibility Wind Speed Wind Dir Waves Ship Positions

Regatta

Last reported at 2017-Oct-17 23:23 UTC. Time now 2017-Oct-18 09:16 UTC.
Position N 25°29' W 079°56'.

Length 180 m; draft 5.7 m.

Type: Passenger vessel. MMSI: 538001664.

Date/timePositionNaut miles runAvg speedWind from/ knotsBaromVisibWave heightAir tempDewpointWater temp
2017-Oct-17 23:23N 25°29' W 079°56'615.6
2017-Oct-17 23:00N 25°35' W 079°57'815.7
2017-Oct-17 22:31N 25°42' W 080°00'611.7
2017-Oct-17 22:01N 25°46' W 080°05'4 8.8
2017-Oct-17 21:31N 25°46' W 080°10'1 1.6
2017-Oct-17 20:59N 25°46' W 080°11'0 0.0
2017-Oct-17 20:29N 25°46' W 080°11'0 0.0
2017-Oct-17 19:59N 25°46' W 080°11'0 0.0
2017-Oct-17 19:29N 25°46' W 080°11'0 0.0
2017-Oct-17 18:59N 25°46' W 080°11'0 0.0
2017-Oct-17 18:29N 25°46' W 080°11'0 0.0
2017-Oct-17 17:59N 25°46' W 080°11'0 0.0
2017-Oct-17 17:26N 25°46' W 080°11'0 0.0
2017-Oct-17 16:59N 25°46' W 080°11'0 0.0
2017-Oct-17 16:29N 25°46' W 080°11'0 0.0
2017-Oct-17 15:53N 25°46' W 080°11'0 0.0
2017-Oct-17 15:20N 25°46' W 080°11'0 0.0
2017-Oct-17 14:59N 25°46' W 080°11'0 0.0
2017-Oct-17 14:29N 25°46' W 080°11'0 0.0
2017-Oct-17 13:59N 25°46' W 080°11'0 0.0
2017-Oct-17 13:29N 25°46' W 080°11'0 0.0
2017-Oct-17 12:59N 25°46' W 080°11'0 0.0
2017-Oct-17 12:29N 25°46' W 080°11'0 0.0
2017-Oct-17 11:59N 25°46' W 080°11'0 0.0
2017-Oct-17 11:29N 25°46' W 080°11'0 0.0
2017-Oct-17 10:59N 25°46' W 080°11'0 0.0
2017-Oct-17 10:29N 25°46' W 080°11'0 0.0
2017-Oct-17 09:59N 25°46' W 080°11'0 0.0
2017-Oct-17 09:29N 25°46' W 080°11'1 2.7
2017-Oct-17 09:00N 25°46' W 080°09'4 8.7
2017-Oct-17 08:30N 25°46' W 080°05'611.9
2017-Oct-17 08:00N 25°49' W 079°59'611.8
2017-Oct-17 07:30N 25°52' W 079°53'611.7
2017-Oct-17 07:00N 25°55' W 079°48'611.6
2017-Oct-17 06:30N 25°58' W 079°42'1211.8
2017-Oct-17 05:29N 26°04' W 079°31'5 0.2
2017-Oct-16 05:07N 25°60' W 079°28'216.8
2017-Oct-16 05:00N 25°58' W 079°29'817.2
2017-Oct-16 04:30N 25°51' W 079°34'917.7
2017-Oct-16 04:01N 25°43' W 079°39'918.1
2017-Oct-16 03:31N 25°36' W 079°45'918.2
2017-Oct-16 03:00N 25°28' W 079°50'48618.3
2017-Oct-15 00:26N 20°38' W 086°53'818.0
2017-Oct-15 00:00N 20°31' W 086°57'1 1.1
2017-Oct-14 23:30N 20°31' W 086°57'0 0.0
2017-Oct-14 23:00N 20°31' W 086°57'0 0.0
2017-Oct-14 22:30N 20°31' W 086°57'0 0.0
2017-Oct-14 22:00N 20°31' W 086°57'0 0.0
2017-Oct-14 21:30N 20°31' W 086°57'0 0.0
2017-Oct-14 21:00N 20°31' W 086°57'0 0.0
2017-Oct-14 20:30N 20°31' W 086°57'0 0.0
2017-Oct-14 20:00N 20°31' W 086°57'0 0.0
2017-Oct-14 19:30N 20°31' W 086°57'0 0.0
2017-Oct-14 19:00N 20°31' W 086°57'0 0.0
2017-Oct-14 18:30N 20°31' W 086°57'0 0.0
2017-Oct-14 18:00N 20°31' W 086°57'0 0.0
2017-Oct-14 17:30N 20°31' W 086°57'0 0.0
2017-Oct-14 17:00N 20°31' W 086°57'0 0.0
2017-Oct-14 16:30N 20°31' W 086°57'0 0.0
2017-Oct-14 16:00N 20°31' W 086°57'0 0.0
2017-Oct-14 15:30N 20°31' W 086°57'0 0.0
2017-Oct-14 15:00N 20°31' W 086°57'0 0.1
2017-Oct-14 14:30N 20°31' W 086°57'1 2.1
2017-Oct-14 14:00N 20°30' W 086°58'5 9.0
2017-Oct-14 13:30N 20°27' W 087°02'  
2017-Oct-09 02:30N 25°20' W 080°02'816.7
2017-Oct-09 02:01N 25°28' W 079°60'917.2
2017-Oct-09 01:31N 25°37' W 080°00'816.2
2017-Oct-09 01:00N 25°44' W 080°04'5 9.7
2017-Oct-09 00:30N 25°46' W 080°09'2 3.8
2017-Oct-09 00:00N 25°46' W 080°11'0 0.0
2017-Oct-08 23:30N 25°46' W 080°11'0 0.0
2017-Oct-08 23:00N 25°46' W 080°11'0 0.0
2017-Oct-08 22:30N 25°46' W 080°11'0 0.0
2017-Oct-08 22:00N 25°46' W 080°11'0 0.0
2017-Oct-08 21:30N 25°46' W 080°11'0 0.0
2017-Oct-08 21:00N 25°46' W 080°11'0 0.0
2017-Oct-08 20:30N 25°46' W 080°11'0 0.0
2017-Oct-08 20:00N 25°46' W 080°11'0 0.0
2017-Oct-08 19:30N 25°46' W 080°11'0 0.0
2017-Oct-08 19:00N 25°46' W 080°11'0 0.0
2017-Oct-08 18:30N 25°46' W 080°11'0 0.0
2017-Oct-08 18:00N 25°46' W 080°11'0 0.0
2017-Oct-08 17:30N 25°46' W 080°11'0 0.0
2017-Oct-08 16:57N 25°46' W 080°11'0 0.0
2017-Oct-08 16:30N 25°46' W 080°11'0 0.0
2017-Oct-08 16:00N 25°46' W 080°11'0 0.0
2017-Oct-08 15:30N 25°46' W 080°11'0 0.0
2017-Oct-08 15:00N 25°46' W 080°11'0 0.0
2017-Oct-08 14:30N 25°46' W 080°11'0 0.0
2017-Oct-08 14:00N 25°46' W 080°11'0 0.0
2017-Oct-08 13:30N 25°46' W 080°11'0 0.0
2017-Oct-08 13:00N 25°46' W 080°11'0 0.0
2017-Oct-08 12:30N 25°46' W 080°11'0 0.0
2017-Oct-08 11:57N 25°46' W 080°11'0 0.0
2017-Oct-08 11:30N 25°46' W 080°11'0 0.0
2017-Oct-08 11:00N 25°46' W 080°11'0 0.1
2017-Oct-08 10:30N 25°46' W 080°11'2 4.0
2017-Oct-08 10:00N 25°46' W 080°09'5 9.1
2017-Oct-08 09:30N 25°45' W 080°04'612.4
2017-Oct-08 09:00N 25°40' W 080°01'612.3
2017-Oct-08 08:30N 25°34' W 080°00'612.6
2017-Oct-08 08:00N 25°27' W 079°60'3612.2
2017-Oct-08 05:04N 24°54' W 080°15'413.2
2017-Oct-08 04:45N 24°51' W 080°18'313.0
2017-Oct-08 04:30N 24°49' W 080°21'1313.1
2017-Oct-08 03:32N 24°42' W 080°32'113.1
2017-Oct-08 03:30N 24°42' W 080°33'  
Track history (hours):
 
Tides and Currents Weather Stations Pressure Air Temp Water Temp Dewpoint Dewpoint Depression Visibility Wind Speed Wind Dir Waves Ship Positions

Regatta

Last reported at 2017-Oct-17 23:23 UTC. Time now 2017-Oct-18 09:16 UTC.
Position N 25°29' W 079°56'.

Length 180 m; draft 5.7 m.

Type: Passenger vessel. MMSI: 538001664.

Date/timePositionNaut miles runAvg speedWind from/ knotsBaromVisibWave heightAir tempDewpointWater temp
2017-Oct-17 23:23N 25°29' W 079°56'615.6
2017-Oct-17 23:00N 25°35' W 079°57'815.7
2017-Oct-17 22:31N 25°42' W 080°00'611.7
2017-Oct-17 22:01N 25°46' W 080°05'4 8.8
2017-Oct-17 21:31N 25°46' W 080°10'1 1.6
2017-Oct-17 20:59N 25°46' W 080°11'0 0.0
2017-Oct-17 20:29N 25°46' W 080°11'0 0.0
2017-Oct-17 19:59N 25°46' W 080°11'0 0.0
2017-Oct-17 19:29N 25°46' W 080°11'0 0.0
2017-Oct-17 18:59N 25°46' W 080°11'0 0.0
2017-Oct-17 18:29N 25°46' W 080°11'0 0.0
2017-Oct-17 17:59N 25°46' W 080°11'0 0.0
2017-Oct-17 17:26N 25°46' W 080°11'0 0.0
2017-Oct-17 16:59N 25°46' W 080°11'0 0.0
2017-Oct-17 16:29N 25°46' W 080°11'0 0.0
2017-Oct-17 15:53N 25°46' W 080°11'0 0.0
2017-Oct-17 15:20N 25°46' W 080°11'0 0.0
2017-Oct-17 14:59N 25°46' W 080°11'0 0.0
2017-Oct-17 14:29N 25°46' W 080°11'0 0.0
2017-Oct-17 13:59N 25°46' W 080°11'0 0.0
2017-Oct-17 13:29N 25°46' W 080°11'0 0.0
2017-Oct-17 12:59N 25°46' W 080°11'0 0.0
2017-Oct-17 12:29N 25°46' W 080°11'0 0.0
2017-Oct-17 11:59N 25°46' W 080°11'0 0.0
2017-Oct-17 11:29N 25°46' W 080°11'0 0.0
2017-Oct-17 10:59N 25°46' W 080°11'0 0.0
2017-Oct-17 10:29N 25°46' W 080°11'0 0.0
2017-Oct-17 09:59N 25°46' W 080°11'0 0.0
2017-Oct-17 09:29N 25°46' W 080°11'1 2.7
2017-Oct-17 09:00N 25°46' W 080°09'4 8.7
2017-Oct-17 08:30N 25°46' W 080°05'611.9
2017-Oct-17 08:00N 25°49' W 079°59'611.8
2017-Oct-17 07:30N 25°52' W 079°53'611.7
2017-Oct-17 07:00N 25°55' W 079°48'611.6
2017-Oct-17 06:30N 25°58' W 079°42'1211.8
2017-Oct-17 05:29N 26°04' W 079°31'5 0.2
2017-Oct-16 05:07N 25°60' W 079°28'216.8
2017-Oct-16 05:00N 25°58' W 079°29'817.2
2017-Oct-16 04:30N 25°51' W 079°34'917.7
2017-Oct-16 04:01N 25°43' W 079°39'918.1
2017-Oct-16 03:31N 25°36' W 079°45'918.2
2017-Oct-16 03:00N 25°28' W 079°50'48618.3
2017-Oct-15 00:26N 20°38' W 086°53'818.0
2017-Oct-15 00:00N 20°31' W 086°57'1 1.1
2017-Oct-14 23:30N 20°31' W 086°57'0 0.0
2017-Oct-14 23:00N 20°31' W 086°57'0 0.0
2017-Oct-14 22:30N 20°31' W 086°57'0 0.0
2017-Oct-14 22:00N 20°31' W 086°57'0 0.0
2017-Oct-14 21:30N 20°31' W 086°57'0 0.0
2017-Oct-14 21:00N 20°31' W 086°57'0 0.0
2017-Oct-14 20:30N 20°31' W 086°57'0 0.0
2017-Oct-14 20:00N 20°31' W 086°57'0 0.0
2017-Oct-14 19:30N 20°31' W 086°57'0 0.0
2017-Oct-14 19:00N 20°31' W 086°57'0 0.0
2017-Oct-14 18:30N 20°31' W 086°57'0 0.0
2017-Oct-14 18:00N 20°31' W 086°57'0 0.0
2017-Oct-14 17:30N 20°31' W 086°57'0 0.0
2017-Oct-14 17:00N 20°31' W 086°57'0 0.0
2017-Oct-14 16:30N 20°31' W 086°57'0 0.0
2017-Oct-14 16:00N 20°31' W 086°57'0 0.0
2017-Oct-14 15:30N 20°31' W 086°57'0 0.0
2017-Oct-14 15:00N 20°31' W 086°57'0 0.1
2017-Oct-14 14:30N 20°31' W 086°57'1 2.1
2017-Oct-14 14:00N 20°30' W 086°58'5 9.0
2017-Oct-14 13:30N 20°27' W 087°02'  
2017-Oct-09 02:30N 25°20' W 080°02'816.7
2017-Oct-09 02:01N 25°28' W 079°60'917.2
2017-Oct-09 01:31N 25°37' W 080°00'816.2
2017-Oct-09 01:00N 25°44' W 080°04'5 9.7
2017-Oct-09 00:30N 25°46' W 080°09'2 3.8
2017-Oct-09 00:00N 25°46' W 080°11'0 0.0
2017-Oct-08 23:30N 25°46' W 080°11'0 0.0
2017-Oct-08 23:00N 25°46' W 080°11'0 0.0
2017-Oct-08 22:30N 25°46' W 080°11'0 0.0
2017-Oct-08 22:00N 25°46' W 080°11'0 0.0
2017-Oct-08 21:30N 25°46' W 080°11'0 0.0
2017-Oct-08 21:00N 25°46' W 080°11'0 0.0
2017-Oct-08 20:30N 25°46' W 080°11'0 0.0
2017-Oct-08 20:00N 25°46' W 080°11'0 0.0
2017-Oct-08 19:30N 25°46' W 080°11'0 0.0
2017-Oct-08 19:00N 25°46' W 080°11'0 0.0
2017-Oct-08 18:30N 25°46' W 080°11'0 0.0
2017-Oct-08 18:00N 25°46' W 080°11'0 0.0
2017-Oct-08 17:30N 25°46' W 080°11'0 0.0
2017-Oct-08 16:57N 25°46' W 080°11'0 0.0
2017-Oct-08 16:30N 25°46' W 080°11'0 0.0
2017-Oct-08 16:00N 25°46' W 080°11'0 0.0
2017-Oct-08 15:30N 25°46' W 080°11'0 0.0
2017-Oct-08 15:00N 25°46' W 080°11'0 0.0
2017-Oct-08 14:30N 25°46' W 080°11'0 0.0
2017-Oct-08 14:00N 25°46' W 080°11'0 0.0
2017-Oct-08 13:30N 25°46' W 080°11'0 0.0
2017-Oct-08 13:00N 25°46' W 080°11'0 0.0
2017-Oct-08 12:30N 25°46' W 080°11'0 0.0
2017-Oct-08 11:57N 25°46' W 080°11'0 0.0
2017-Oct-08 11:30N 25°46' W 080°11'0 0.0
2017-Oct-08 11:00N 25°46' W 080°11'0 0.1
2017-Oct-08 10:30N 25°46' W 080°11'2 4.0
2017-Oct-08 10:00N 25°46' W 080°09'5 9.1
2017-Oct-08 09:30N 25°45' W 080°04'612.4
2017-Oct-08 09:00N 25°40' W 080°01'612.3
2017-Oct-08 08:30N 25°34' W 080°00'612.6
2017-Oct-08 08:00N 25°27' W 079°60'3612.2
2017-Oct-08 05:04N 24°54' W 080°15'413.2
2017-Oct-08 04:45N 24°51' W 080°18'313.0
2017-Oct-08 04:30N 24°49' W 080°21'1313.1
2017-Oct-08 03:32N 24°42' W 080°32'113.1
2017-Oct-08 03:30N 24°42' W 080°33'  

Dump ship's entire track history